createdAt,value
2024-01-24T00:00:11.964Z,87.53
2024-01-24T00:01:14.414Z,86.93
2024-01-24T00:02:15.996Z,87.00
2024-01-24T00:03:17.688Z,87.37
2024-01-24T00:04:19.461Z,87.70
2024-01-24T00:05:21.175Z,86.95
2024-01-24T00:06:22.764Z,86.69
2024-01-24T00:07:24.238Z,86.62
2024-01-24T00:08:26.014Z,86.97
2024-01-24T00:09:27.535Z,87.13
2024-01-24T00:10:29.036Z,87.47
2024-01-24T00:11:31.109Z,86.98
2024-01-24T00:12:32.895Z,87.00
2024-01-24T00:13:34.576Z,86.68
2024-01-24T00:14:36.098Z,86.97
2024-01-24T00:15:37.660Z,86.96
2024-01-24T00:16:40.342Z,86.81
2024-01-24T00:17:41.812Z,87.25
2024-01-24T00:18:43.436Z,87.81
2024-01-24T00:19:45.031Z,87.17
2024-01-24T00:20:46.603Z,87.72
2024-01-24T00:21:48.231Z,87.04
2024-01-24T00:22:49.738Z,87.59
2024-01-24T00:23:51.280Z,87.79
2024-01-24T00:24:52.869Z,87.71
2024-01-24T00:25:54.541Z,87.55
2024-01-24T00:26:56.317Z,87.33
2024-01-24T00:27:58.093Z,87.02
2024-01-24T00:28:59.689Z,86.69
2024-01-24T00:30:01.195Z,86.61
2024-01-24T00:31:02.774Z,86.18
2024-01-24T00:32:04.804Z,86.05
2024-01-24T00:33:06.279Z,86.83
2024-01-24T00:34:07.896Z,86.43
2024-01-24T00:35:09.667Z,86.29
2024-01-24T00:36:11.203Z,86.01
2024-01-24T00:37:12.719Z,85.64
2024-01-24T00:38:16.825Z,85.55
2024-01-24T00:39:18.433Z,86.31
2024-01-24T00:40:19.913Z,85.99
2024-01-24T00:41:21.499Z,86.30
2024-01-24T00:42:23.056Z,86.32
2024-01-24T00:43:24.630Z,85.89
2024-01-24T00:44:26.276Z,85.54
2024-01-24T00:45:27.830Z,85.04
2024-01-24T00:46:29.280Z,85.05
2024-01-24T00:47:30.823Z,85.12
2024-01-24T00:48:32.404Z,85.78
2024-01-24T00:49:33.997Z,85.86
2024-01-24T00:50:35.885Z,85.47
2024-01-24T00:51:38.596Z,85.40
2024-01-24T00:52:40.076Z,85.33
2024-01-24T00:53:41.850Z,85.29
2024-01-24T00:54:43.483Z,85.98
2024-01-24T00:55:46.690Z,85.84
2024-01-24T00:56:48.818Z,85.38
2024-01-24T00:57:50.329Z,85.84
2024-01-24T00:58:54.264Z,86.34
2024-01-24T00:59:55.807Z,86.06
2024-01-24T01:00:57.339Z,86.09
2024-01-24T01:01:58.882Z,85.94
2024-01-24T01:03:00.474Z,86.46
2024-01-24T01:04:02.201Z,85.87
2024-01-24T01:05:05.469Z,85.62
2024-01-24T01:06:07.421Z,85.28
2024-01-24T01:07:09.073Z,84.87
2024-01-24T01:08:10.646Z,85.00
2024-01-24T01:09:12.834Z,85.32
2024-01-24T01:10:14.450Z,85.38
2024-01-24T01:11:18.492Z,85.34
2024-01-24T01:12:20.207Z,85.12
2024-01-24T01:13:21.794Z,84.34
2024-01-24T01:14:23.265Z,83.88
2024-01-24T01:15:25.767Z,84.01
2024-01-24T01:16:27.316Z,84.40
2024-01-24T01:17:28.892Z,84.81
2024-01-24T01:18:30.639Z,84.86
2024-01-24T01:19:32.229Z,85.02
2024-01-24T01:20:33.779Z,85.33
2024-01-24T01:21:36.070Z,85.18
2024-01-24T01:22:37.623Z,84.93
2024-01-24T01:23:39.133Z,84.65
2024-01-24T01:24:40.604Z,84.88
2024-01-24T01:25:42.118Z,85.08
2024-01-24T01:26:43.583Z,85.30
2024-01-24T01:27:45.146Z,85.04
2024-01-24T01:28:46.719Z,84.86
2024-01-24T01:29:48.231Z,85.65
2024-01-24T01:30:49.884Z,85.04
2024-01-24T01:31:51.515Z,84.92
2024-01-24T01:32:53.190Z,84.71
2024-01-24T01:33:55.272Z,84.62
2024-01-24T01:34:56.779Z,84.74
2024-01-24T01:36:09.102Z,84.19
2024-01-24T01:37:19.128Z,83.72
2024-01-24T01:38:20.574Z,83.95
2024-01-24T01:39:25.355Z,84.42
2024-01-24T01:40:27.610Z,83.98
2024-01-24T01:41:29.115Z,84.12
2024-01-24T01:42:30.652Z,84.16
2024-01-24T01:43:32.261Z,84.54
2024-01-24T01:44:44.156Z,84.99
2024-01-24T01:45:45.755Z,84.45
2024-01-24T01:46:48.890Z,84.91
2024-01-24T01:47:52.226Z,84.32
2024-01-24T01:48:56.976Z,83.52
2024-01-24T01:49:58.663Z,83.82
2024-01-24T01:51:00.759Z,83.97
2024-01-24T01:52:02.342Z,83.46
2024-01-24T01:53:04.829Z,83.68
2024-01-24T01:54:08.897Z,83.38
2024-01-24T01:55:12.945Z,83.65
2024-01-24T01:56:17.849Z,83.84
2024-01-24T01:57:19.473Z,83.65
2024-01-24T01:58:22.286Z,83.72
2024-01-24T01:59:23.824Z,83.32
2024-01-24T02:00:26.760Z,83.58
2024-01-24T02:01:28.461Z,83.41
2024-01-24T02:02:29.957Z,83.81
2024-01-24T02:03:31.939Z,83.89
2024-01-24T02:04:33.613Z,83.25
2024-01-24T02:05:37.372Z,83.20
2024-01-24T02:06:40.524Z,83.60
2024-01-24T02:07:46.120Z,82.95
2024-01-24T02:08:47.728Z,82.72
2024-01-24T02:09:49.283Z,83.51
2024-01-24T02:10:50.901Z,83.16
2024-01-24T02:11:52.372Z,82.88
2024-01-24T02:12:54.021Z,83.22
2024-01-24T02:14:00.343Z,82.93
2024-01-24T02:15:02.950Z,83.39
2024-01-24T02:16:05.073Z,83.34
2024-01-24T02:17:07.102Z,83.03
2024-01-24T02:18:08.661Z,83.25
2024-01-24T02:19:10.552Z,83.39
2024-01-24T02:20:13.649Z,83.23
2024-01-24T02:21:15.208Z,83.03
2024-01-24T02:22:16.704Z,82.77
2024-01-24T02:23:20.028Z,82.96
2024-01-24T02:24:21.514Z,83.28
2024-01-24T02:25:23.294Z,83.01
2024-01-24T02:26:24.812Z,82.85
2024-01-24T02:27:26.343Z,82.21
2024-01-24T02:28:27.985Z,82.74
2024-01-24T02:29:29.725Z,82.67
2024-01-24T02:30:31.345Z,82.56
2024-01-24T02:31:32.856Z,82.73
2024-01-24T02:32:34.441Z,83.17
2024-01-24T02:33:36.071Z,83.37
2024-01-24T02:34:37.696Z,82.51
2024-01-24T02:35:39.309Z,82.84
2024-01-24T02:36:40.782Z,83.42
2024-01-24T02:37:42.238Z,83.04
2024-01-24T02:38:43.722Z,82.72
2024-01-24T02:39:45.204Z,83.10
2024-01-24T02:40:46.843Z,82.95
2024-01-24T02:41:48.405Z,83.29
2024-01-24T02:42:49.965Z,83.17
2024-01-24T02:43:51.544Z,83.47
2024-01-24T02:44:53.128Z,83.00
2024-01-24T02:45:55.286Z,83.70
2024-01-24T02:46:56.801Z,83.50
2024-01-24T02:47:58.505Z,83.88
2024-01-24T02:49:00.069Z,83.28
2024-01-24T02:50:04.050Z,83.66
2024-01-24T02:51:05.605Z,83.62
2024-01-24T02:52:07.395Z,84.02
2024-01-24T02:53:09.316Z,83.52
2024-01-24T02:54:10.848Z,83.58
2024-01-24T02:55:17.827Z,83.56
2024-01-24T02:56:20.002Z,83.40
2024-01-24T02:57:21.591Z,83.70
2024-01-24T02:58:23.235Z,82.83
2024-01-24T02:59:26.086Z,83.75
2024-01-24T03:00:29.150Z,83.33
2024-01-24T03:01:30.537Z,83.11
2024-01-24T03:02:32.472Z,82.93
2024-01-24T03:03:33.994Z,83.60
2024-01-24T03:04:35.632Z,83.71
2024-01-24T03:05:37.159Z,83.48
2024-01-24T03:06:41.456Z,83.22
2024-01-24T03:07:43.042Z,82.89
2024-01-24T03:08:58.470Z,83.37
2024-01-24T03:09:59.947Z,83.42
2024-01-24T03:11:01.426Z,83.18
2024-01-24T03:12:03.114Z,83.01
2024-01-24T03:13:04.814Z,83.58
2024-01-24T03:14:06.365Z,83.92
2024-01-24T03:15:08.293Z,84.12
2024-01-24T03:16:09.889Z,84.23
2024-01-24T03:17:11.431Z,84.35
2024-01-24T03:18:13.271Z,84.04
2024-01-24T03:19:15.334Z,84.45
2024-01-24T03:20:18.114Z,84.76
2024-01-24T03:21:20.245Z,84.66
2024-01-24T03:22:21.975Z,84.26
2024-01-24T03:23:25.828Z,84.20
2024-01-24T03:24:27.463Z,84.08
2024-01-24T03:25:29.020Z,84.00
2024-01-24T03:26:30.539Z,83.60
2024-01-24T03:27:32.075Z,83.47
2024-01-24T03:28:34.265Z,82.87
2024-01-24T03:29:35.824Z,83.34
2024-01-24T03:30:37.334Z,83.43
2024-01-24T03:31:43.292Z,83.28
2024-01-24T03:32:44.843Z,83.39
2024-01-24T03:33:46.453Z,84.12
2024-01-24T03:39:37.294Z,83.92
2024-01-24T03:40:38.982Z,83.35
2024-01-24T03:41:40.487Z,83.71
2024-01-24T03:42:42.148Z,84.00
2024-01-24T03:43:43.881Z,84.07
2024-01-24T03:44:45.502Z,84.52
2024-01-24T03:45:47.089Z,84.07
2024-01-24T03:46:48.927Z,83.99
2024-01-24T03:47:51.768Z,84.05
2024-01-24T03:48:53.963Z,84.48
2024-01-24T03:49:55.519Z,83.82
2024-01-24T03:50:57.108Z,84.25
2024-01-24T03:51:58.681Z,84.50
2024-01-24T03:53:03.895Z,84.27
2024-01-24T03:54:05.854Z,84.64
2024-01-24T03:55:07.865Z,84.56
2024-01-24T03:56:09.488Z,84.40
2024-01-24T03:57:10.948Z,84.52
2024-01-24T03:58:12.453Z,83.85
2024-01-24T03:59:13.960Z,83.87
2024-01-24T04:00:17.398Z,84.14
2024-01-24T04:01:20.249Z,84.17
2024-01-24T04:02:21.799Z,84.51
2024-01-24T04:03:23.549Z,84.12
2024-01-24T04:04:25.557Z,84.33
2024-01-24T04:05:27.215Z,84.62
2024-01-24T04:06:28.774Z,84.26
2024-01-24T04:07:30.345Z,84.51
2024-01-24T04:08:31.911Z,84.77
2024-01-24T04:09:33.663Z,84.68
2024-01-24T04:10:35.219Z,84.54
2024-01-24T04:11:38.717Z,85.65
2024-01-24T04:12:40.257Z,85.18
2024-01-24T04:13:44.042Z,85.28
2024-01-24T04:14:45.691Z,85.89
2024-01-24T04:15:47.361Z,85.10
2024-01-24T04:16:49.076Z,84.83
2024-01-24T04:17:50.676Z,84.63
2024-01-24T04:18:52.313Z,85.34
2024-01-24T04:19:53.909Z,85.90
2024-01-24T04:20:55.396Z,85.09
2024-01-24T04:21:57.112Z,85.35
2024-01-24T04:22:59.268Z,85.14
2024-01-24T04:24:00.729Z,85.63
2024-01-24T04:25:02.609Z,85.15
2024-01-24T04:26:05.554Z,85.63
2024-01-24T04:27:07.836Z,85.08
2024-01-24T04:28:10.375Z,84.99
2024-01-24T04:29:13.824Z,85.54
2024-01-24T04:30:16.661Z,85.20
2024-01-24T04:31:18.383Z,85.14
2024-01-24T04:32:19.989Z,85.22
2024-01-24T04:33:21.586Z,84.88
2024-01-24T04:34:23.348Z,85.51
2024-01-24T04:35:24.924Z,85.19
2024-01-24T04:36:26.471Z,84.96
2024-01-24T04:37:28.009Z,84.79
2024-01-24T04:38:29.556Z,84.43
2024-01-24T04:39:31.662Z,84.04
2024-01-24T04:40:33.311Z,84.89
2024-01-24T04:41:37.469Z,84.70
2024-01-24T04:42:40.034Z,84.69
2024-01-24T04:43:41.612Z,84.54
2024-01-24T04:44:43.451Z,84.78
2024-01-24T04:45:44.955Z,84.24
2024-01-24T04:46:46.501Z,84.40
2024-01-24T04:47:48.167Z,84.33
2024-01-24T04:48:49.980Z,84.10
2024-01-24T04:49:51.799Z,83.69
2024-01-24T04:50:53.432Z,83.75
2024-01-24T04:51:55.069Z,83.55
2024-01-24T04:52:56.673Z,83.11
2024-01-24T04:53:58.245Z,83.41
2024-01-24T04:54:59.755Z,83.16
2024-01-24T04:56:04.394Z,83.42
2024-01-24T04:57:05.921Z,82.95
2024-01-24T04:58:07.384Z,83.84
2024-01-24T04:59:08.943Z,83.86
2024-01-24T05:00:13.297Z,84.24
2024-01-24T05:01:15.231Z,84.02
2024-01-24T05:02:17.333Z,84.00
2024-01-24T05:03:18.960Z,83.51
2024-01-24T05:04:20.586Z,83.48
2024-01-24T05:05:22.204Z,83.47
2024-01-24T05:06:23.856Z,83.83
2024-01-24T05:07:25.447Z,83.74
2024-01-24T05:08:26.926Z,83.27
2024-01-24T05:09:28.524Z,83.20
2024-01-24T05:10:31.212Z,83.25
2024-01-24T05:11:32.701Z,82.74
2024-01-24T05:12:34.955Z,83.08
2024-01-24T05:13:37.798Z,82.95
2024-01-24T05:14:39.322Z,82.72
2024-01-24T05:15:40.874Z,82.40
2024-01-24T05:16:42.962Z,82.25
2024-01-24T05:17:45.161Z,82.22
2024-01-24T05:18:46.825Z,82.37
2024-01-24T05:19:49.328Z,82.35
2024-01-24T05:20:51.026Z,82.27
2024-01-24T05:21:52.682Z,82.06
2024-01-24T05:22:54.616Z,82.16
2024-01-24T05:23:56.128Z,82.04
2024-01-24T05:24:57.743Z,82.41
2024-01-24T05:25:59.357Z,82.65
2024-01-24T05:27:00.876Z,82.43
2024-01-24T05:28:02.379Z,82.28
2024-01-24T05:29:05.781Z,82.69
2024-01-24T05:30:16.398Z,81.88
2024-01-24T05:31:26.464Z,81.83
2024-01-24T05:32:28.157Z,82.08
2024-01-24T05:33:29.821Z,81.61
2024-01-24T05:34:31.428Z,82.20
2024-01-24T05:35:34.177Z,82.70
2024-01-24T05:36:36.998Z,82.48
2024-01-24T05:37:38.563Z,82.37
2024-01-24T05:38:40.040Z,82.10
2024-01-24T05:39:43.206Z,82.72
2024-01-24T05:40:45.620Z,82.05
2024-01-24T05:41:47.226Z,81.61
2024-01-24T05:42:49.638Z,81.47
2024-01-24T05:43:53.806Z,81.60
2024-01-24T05:44:57.338Z,81.66
2024-01-24T05:45:58.977Z,81.17
2024-01-24T05:47:00.596Z,80.85
2024-01-24T05:48:02.164Z,81.27
2024-01-24T05:49:03.914Z,81.12
2024-01-24T05:50:10.655Z,81.34
2024-01-24T05:51:12.937Z,81.41
2024-01-24T05:52:14.616Z,81.24
2024-01-24T05:53:16.131Z,81.42
2024-01-24T05:54:17.729Z,80.90
2024-01-24T05:55:19.523Z,81.40
2024-01-24T05:56:21.334Z,81.18
2024-01-24T05:57:25.376Z,81.06
2024-01-24T05:58:26.954Z,80.81
2024-01-24T05:59:28.772Z,81.13
2024-01-24T06:00:30.483Z,81.37
2024-01-24T06:01:32.246Z,81.17
2024-01-24T06:02:33.908Z,81.10
2024-01-24T06:03:35.818Z,80.68
2024-01-24T06:04:37.637Z,80.76
2024-01-24T06:05:39.526Z,80.66
2024-01-24T06:06:41.731Z,80.64
2024-01-24T06:07:43.718Z,81.14
2024-01-24T06:08:45.430Z,81.31
2024-01-24T06:09:46.987Z,81.51
2024-01-24T06:10:48.540Z,81.29
2024-01-24T06:11:50.209Z,81.40
2024-01-24T06:12:51.957Z,81.96
2024-01-24T06:13:54.039Z,81.95
2024-01-24T06:14:58.199Z,82.27
2024-01-24T06:15:59.823Z,81.89
2024-01-24T06:17:02.225Z,81.91
2024-01-24T06:18:04.236Z,81.82
2024-01-24T06:19:05.825Z,81.93
2024-01-24T06:20:10.000Z,81.86
2024-01-24T06:21:11.514Z,81.91
2024-01-24T06:22:13.106Z,82.41
2024-01-24T06:23:14.672Z,82.11
2024-01-24T06:24:16.281Z,81.55
2024-01-24T06:25:17.805Z,81.99
2024-01-24T06:26:19.420Z,81.75
2024-01-24T06:27:21.348Z,81.63
2024-01-24T06:28:22.892Z,81.83
2024-01-24T06:30:15.088Z,82.19
2024-01-24T06:30:47.171Z,82.48
2024-01-24T06:31:49.022Z,82.25
2024-01-24T06:32:52.723Z,83.05
2024-01-24T06:33:55.156Z,83.17
2024-01-24T06:34:56.874Z,82.78
2024-01-24T06:35:59.074Z,83.13
2024-01-24T06:37:00.594Z,82.87
2024-01-24T06:38:02.487Z,82.34
2024-01-24T06:39:04.063Z,82.22
2024-01-24T06:40:07.087Z,81.75
2024-01-24T06:41:08.577Z,82.40
2024-01-24T06:42:10.677Z,82.06
2024-01-24T06:43:15.665Z,82.15
2024-01-24T06:44:17.133Z,81.72
2024-01-24T06:45:19.020Z,81.87
2024-01-24T06:46:20.563Z,82.15
2024-01-24T06:47:22.335Z,82.13
2024-01-24T06:48:24.154Z,82.09
2024-01-24T06:49:25.830Z,81.71
2024-01-24T06:50:27.534Z,81.96
2024-01-24T06:51:29.061Z,81.88
2024-01-24T06:52:31.892Z,81.93
2024-01-24T06:53:33.462Z,82.11
2024-01-24T06:54:37.960Z,82.55
2024-01-24T06:55:39.551Z,81.89
2024-01-24T06:56:41.177Z,82.26
2024-01-24T06:57:42.807Z,82.56
2024-01-24T06:58:44.434Z,82.04
2024-01-24T06:59:45.962Z,82.44
2024-01-24T07:00:47.876Z,82.41
2024-01-24T07:01:49.493Z,81.97
2024-01-24T07:02:51.080Z,81.86
2024-01-24T07:03:52.634Z,82.38
2024-01-24T07:04:54.232Z,82.17
2024-01-24T07:05:55.939Z,82.28
2024-01-24T07:06:57.434Z,82.28
2024-01-24T07:07:59.228Z,82.53
2024-01-24T07:09:00.709Z,82.55
2024-01-24T07:10:02.298Z,82.40
2024-01-24T07:11:04.068Z,82.21
2024-01-24T07:12:06.079Z,82.30
2024-01-24T07:13:07.615Z,82.18
2024-01-24T07:14:09.208Z,82.29
2024-01-24T07:15:10.690Z,82.24
2024-01-24T07:16:12.307Z,82.22
2024-01-24T07:17:13.834Z,82.04
2024-01-24T07:18:15.437Z,82.42
2024-01-24T07:19:17.880Z,82.72
2024-01-24T07:20:19.653Z,82.73
2024-01-24T07:21:21.339Z,82.34
2024-01-24T07:22:22.907Z,82.67
2024-01-24T07:23:24.412Z,82.98
2024-01-24T07:24:25.925Z,82.63
2024-01-24T07:25:27.530Z,82.80
2024-01-24T07:26:29.669Z,83.07
2024-01-24T07:27:32.517Z,82.97
2024-01-24T07:28:36.220Z,82.78
2024-01-24T07:29:37.741Z,82.60
2024-01-24T07:30:39.281Z,82.74
2024-01-24T07:31:41.195Z,82.73
2024-01-24T07:32:43.595Z,82.47
2024-01-24T07:33:45.295Z,82.69
2024-01-24T07:34:47.053Z,82.42
2024-01-24T07:35:48.717Z,82.49
2024-01-24T07:36:50.641Z,82.01
2024-01-24T07:37:52.305Z,82.65
2024-01-24T07:38:54.336Z,82.41
2024-01-24T07:39:56.262Z,82.31
2024-01-24T07:40:57.895Z,82.35
2024-01-24T07:41:59.490Z,82.47
2024-01-24T07:43:01.058Z,82.70
2024-01-24T07:44:02.743Z,82.42
2024-01-24T07:45:04.900Z,82.29
2024-01-24T07:46:07.153Z,82.49
2024-01-24T07:47:09.356Z,82.39
2024-01-24T07:48:15.352Z,82.31
2024-01-24T07:49:17.303Z,82.70
2024-01-24T07:50:19.223Z,82.80
2024-01-24T07:51:21.913Z,82.90
2024-01-24T07:52:32.200Z,83.30
2024-01-24T07:53:39.819Z,83.61
2024-01-24T07:54:41.487Z,84.07
2024-01-24T07:55:53.416Z,84.34
2024-01-24T07:57:00.689Z,84.78
2024-01-24T07:58:02.461Z,85.50
2024-01-24T07:59:05.313Z,85.64
2024-01-24T08:00:07.767Z,85.69
2024-01-24T08:01:10.281Z,85.66
2024-01-24T08:02:13.949Z,85.85
2024-01-24T08:03:15.634Z,85.63
2024-01-24T08:04:17.733Z,85.94
2024-01-24T08:05:20.853Z,85.61
2024-01-24T08:06:23.191Z,86.28
2024-01-24T08:07:25.595Z,86.88
2024-01-24T08:08:27.374Z,87.26
2024-01-24T08:09:29.109Z,87.54
2024-01-24T08:10:30.839Z,88.45
2024-01-24T08:11:32.512Z,88.80
2024-01-24T08:12:34.025Z,88.45
2024-01-24T08:13:35.555Z,88.73
2024-01-24T08:14:38.138Z,89.01
2024-01-24T08:15:41.869Z,89.11
2024-01-24T08:19:09.206Z,90.06
2024-01-24T08:20:11.321Z,90.36
2024-01-24T08:21:13.483Z,90.62
2024-01-24T08:22:15.346Z,90.48
2024-01-24T08:23:17.088Z,90.57
2024-01-24T08:24:18.618Z,90.97
2024-01-24T08:25:20.378Z,90.79
2024-01-24T08:26:22.356Z,91.08
2024-01-24T08:27:24.392Z,90.82
2024-01-24T08:28:26.000Z,91.25
2024-01-24T08:29:36.151Z,91.57
2024-01-24T08:30:39.644Z,91.96
2024-01-24T08:31:41.227Z,92.51
2024-01-24T08:32:43.505Z,93.20
2024-01-24T08:33:47.783Z,93.59
2024-01-24T08:34:50.729Z,93.81
2024-01-24T08:35:52.360Z,93.36
2024-01-24T08:36:53.908Z,93.76
2024-01-24T08:37:55.743Z,93.75
2024-01-24T08:38:57.378Z,93.88
2024-01-24T08:39:59.054Z,93.36
2024-01-24T08:41:00.665Z,93.45
2024-01-24T08:42:05.818Z,93.51
2024-01-24T08:43:07.433Z,92.89
2024-01-24T08:44:09.014Z,92.62
2024-01-24T08:45:10.903Z,91.98
2024-01-24T08:46:12.453Z,91.78
2024-01-24T08:47:14.113Z,91.77
2024-01-24T08:48:15.825Z,91.50
2024-01-24T08:49:17.667Z,91.28
2024-01-24T08:50:19.364Z,90.76
2024-01-24T08:51:22.463Z,90.59
2024-01-24T08:52:24.953Z,90.41
2024-01-24T08:53:26.910Z,89.95
2024-01-24T08:54:28.632Z,89.67
2024-01-24T08:55:30.935Z,89.60
2024-01-24T08:56:32.527Z,89.51
2024-01-24T08:57:34.323Z,89.61
2024-01-24T08:58:35.825Z,90.64
2024-01-24T08:59:40.712Z,91.41
2024-01-24T09:00:42.612Z,91.67
2024-01-24T09:01:44.383Z,91.68
2024-01-24T09:02:48.039Z,91.84
2024-01-24T09:03:51.102Z,92.30
2024-01-24T09:04:54.218Z,92.53
2024-01-24T09:05:55.877Z,93.08
2024-01-24T09:06:57.779Z,93.06
2024-01-24T09:07:59.288Z,93.05
2024-01-24T09:09:00.855Z,93.17
2024-01-24T09:10:06.121Z,92.88
2024-01-24T09:11:08.357Z,92.67
2024-01-24T09:12:10.208Z,92.37
2024-01-24T09:13:12.186Z,92.31
2024-01-24T09:14:13.918Z,93.29
2024-01-24T09:15:15.593Z,93.60
2024-01-24T09:16:17.314Z,93.67
2024-01-24T09:17:19.704Z,93.94
2024-01-24T09:18:23.017Z,93.88
2024-01-24T09:19:24.876Z,93.37
2024-01-24T09:20:26.790Z,93.03
2024-01-24T09:21:28.851Z,93.04
2024-01-24T09:22:30.367Z,92.70
2024-01-24T09:23:31.918Z,92.01
2024-01-24T09:24:33.528Z,91.49
2024-01-24T09:25:35.056Z,91.33
2024-01-24T09:26:37.639Z,90.42
2024-01-24T09:27:39.233Z,90.00
2024-01-24T09:28:43.753Z,89.37
2024-01-24T09:29:45.262Z,86.95
2024-01-24T09:30:46.855Z,85.76
2024-01-24T09:31:48.404Z,84.92
2024-01-24T09:32:50.199Z,84.12
2024-01-24T09:33:52.171Z,82.73
2024-01-24T09:34:54.113Z,83.04
2024-01-24T09:35:56.185Z,82.03
2024-01-24T09:36:58.077Z,82.34
2024-01-24T09:38:00.505Z,81.80
2024-01-24T09:39:01.977Z,81.01
2024-01-24T09:40:04.039Z,81.00
2024-01-24T09:41:17.194Z,80.03
2024-01-24T09:42:21.784Z,80.12
2024-01-24T09:43:25.133Z,79.37
2024-01-24T09:44:31.738Z,80.30
2024-01-24T09:45:38.203Z,80.13
2024-01-24T09:46:43.465Z,79.57
2024-01-24T09:47:47.560Z,80.15
2024-01-24T09:48:49.383Z,79.41
2024-01-24T09:49:52.161Z,78.76
2024-01-24T09:50:53.897Z,77.83
2024-01-24T09:51:55.820Z,78.11
2024-01-24T09:52:58.123Z,78.32
2024-01-24T09:54:06.794Z,78.06
2024-01-24T09:55:10.345Z,77.90
2024-01-24T09:56:12.945Z,78.06
2024-01-24T09:57:14.630Z,77.84
2024-01-24T09:58:19.093Z,77.92
2024-01-24T09:59:21.077Z,78.11
2024-01-24T10:00:22.579Z,77.96
2024-01-24T10:01:27.132Z,78.35
2024-01-24T10:02:29.287Z,78.49
2024-01-24T10:03:34.495Z,76.96
2024-01-24T10:04:38.977Z,76.83
2024-01-24T10:05:44.314Z,78.02
2024-01-24T10:06:47.535Z,78.06
2024-01-24T10:07:49.214Z,78.50
2024-01-24T10:08:50.824Z,78.86
2024-01-24T10:10:10.418Z,79.13
2024-01-24T10:11:12.548Z,78.96
2024-01-24T10:12:14.248Z,79.48
2024-01-24T10:13:15.704Z,80.07
2024-01-24T10:14:19.354Z,80.74
2024-01-24T10:15:22.569Z,81.59
2024-01-24T10:16:28.279Z,82.68
2024-01-24T10:17:30.025Z,83.38
2024-01-24T10:18:31.875Z,84.00
2024-01-24T10:19:33.616Z,85.07
2024-01-24T10:20:35.217Z,86.15
2024-01-24T10:21:36.917Z,87.02
2024-01-24T10:22:40.168Z,88.60
2024-01-24T10:23:43.301Z,90.10
2024-01-24T10:24:45.304Z,91.13
2024-01-24T10:25:47.153Z,92.60
2024-01-24T10:26:52.761Z,93.44
2024-01-24T10:27:55.366Z,94.50
2024-01-24T10:28:57.106Z,95.31
2024-01-24T10:29:58.620Z,96.29
2024-01-24T10:31:02.743Z,96.69
2024-01-24T10:32:10.179Z,97.19
2024-01-24T10:33:15.106Z,97.28
2024-01-24T10:34:17.373Z,97.42
2024-01-24T10:35:19.272Z,98.10
2024-01-24T10:36:27.070Z,98.52
2024-01-24T10:37:34.010Z,98.77
2024-01-24T10:38:48.058Z,97.42
2024-01-24T10:39:54.652Z,95.86
2024-01-24T10:41:00.305Z,95.35
2024-01-24T10:42:11.103Z,92.43
2024-01-24T10:43:15.088Z,86.51
2024-01-24T10:44:18.158Z,86.15
2024-01-24T10:45:21.362Z,84.81
2024-01-24T10:46:23.988Z,86.66
2024-01-24T10:47:25.775Z,85.80
2024-01-24T10:48:28.938Z,87.08
2024-01-24T10:49:30.998Z,87.27
2024-01-24T10:50:33.081Z,86.68
2024-01-24T10:51:35.267Z,88.90
2024-01-24T10:52:39.857Z,87.11
2024-01-24T10:53:42.958Z,87.51
2024-01-24T10:54:45.353Z,83.96
2024-01-24T10:55:50.068Z,71.84
2024-01-24T10:56:52.183Z,71.30
2024-01-24T10:57:54.643Z,68.50
2024-01-24T10:59:02.905Z,62.34
2024-01-24T11:00:12.025Z,59.97
2024-01-24T11:01:16.431Z,58.38
2024-01-24T11:02:18.188Z,56.01
2024-01-24T11:03:19.918Z,54.37
2024-01-24T11:04:24.225Z,52.40
2024-01-24T11:05:38.377Z,49.73
2024-01-24T11:06:46.212Z,50.75
2024-01-24T11:07:55.450Z,49.51
2024-01-24T11:09:25.091Z,48.65
2024-01-24T11:10:41.574Z,47.86
2024-01-24T11:11:44.321Z,47.03
2024-01-24T11:12:46.054Z,47.35
2024-01-24T11:13:47.591Z,47.27
2024-01-24T11:14:49.823Z,44.76
2024-01-24T11:15:55.923Z,46.88
2024-01-24T11:16:59.213Z,45.09
2024-01-24T11:18:18.974Z,44.75
2024-01-24T11:19:23.477Z,44.98
2024-01-24T11:20:26.841Z,45.30
2024-01-24T11:21:30.538Z,46.87
2024-01-24T11:22:33.308Z,49.31
2024-01-24T11:23:46.168Z,48.13
2024-01-24T11:24:48.384Z,46.56
2024-01-24T11:25:51.314Z,47.21
2024-01-24T11:26:54.384Z,47.29
2024-01-24T11:27:58.619Z,50.37
2024-01-24T11:29:06.892Z,50.99
2024-01-24T11:30:42.837Z,49.19
2024-01-24T11:31:44.816Z,50.25
2024-01-24T11:32:49.322Z,50.40
2024-01-24T11:34:12.849Z,50.94
2024-01-24T11:35:35.295Z,53.63
2024-01-24T11:37:38.947Z,52.14
2024-01-24T11:38:40.468Z,54.97
2024-01-24T11:39:42.234Z,55.30
2024-01-24T11:40:44.884Z,56.67
2024-01-24T11:41:46.420Z,57.56
2024-01-24T11:42:57.864Z,57.96
2024-01-24T11:43:59.573Z,58.79
2024-01-24T11:47:17.106Z,61.92
2024-01-24T11:48:18.899Z,61.60
2024-01-24T11:49:22.898Z,61.73
2024-01-24T11:50:25.190Z,63.25
2024-01-24T11:51:26.772Z,61.70
2024-01-24T11:52:30.645Z,62.42
2024-01-24T11:53:32.689Z,60.76
2024-01-24T11:54:34.248Z,60.90
2024-01-24T11:55:36.283Z,59.29
2024-01-24T11:56:37.958Z,59.30
2024-01-24T11:57:40.006Z,58.21
2024-01-24T11:58:41.644Z,58.10
2024-01-24T11:59:43.127Z,58.03
2024-01-24T12:00:45.354Z,58.46
2024-01-24T12:01:47.383Z,59.24
2024-01-24T12:02:50.933Z,59.46
2024-01-24T12:03:52.706Z,58.77
2024-01-24T12:04:54.643Z,58.77
2024-01-24T12:05:56.507Z,58.84
2024-01-24T12:06:58.221Z,59.28
2024-01-24T12:07:59.815Z,59.32
2024-01-24T12:09:01.305Z,59.33
2024-01-24T12:10:03.018Z,59.04
2024-01-24T12:11:05.276Z,58.92
2024-01-24T12:12:07.422Z,59.42
2024-01-24T12:13:10.435Z,58.09
2024-01-24T12:14:12.323Z,58.25
2024-01-24T12:15:14.427Z,58.89
2024-01-24T12:16:16.264Z,59.59
2024-01-24T12:17:17.899Z,58.69
2024-01-24T12:18:19.833Z,58.55
2024-01-24T12:19:22.488Z,58.57
2024-01-24T12:20:24.437Z,58.59
2024-01-24T12:21:28.520Z,59.03
2024-01-24T12:22:30.374Z,59.04
2024-01-24T12:23:31.948Z,59.21
2024-01-24T12:24:34.024Z,59.53
2024-01-24T12:25:36.765Z,60.42
2024-01-24T12:26:39.853Z,60.61
2024-01-24T12:27:43.832Z,60.06
2024-01-24T12:28:45.927Z,59.94
2024-01-24T12:29:51.950Z,59.48
2024-01-24T12:30:56.284Z,59.15
2024-01-24T12:32:01.342Z,59.44
2024-01-24T12:33:04.557Z,59.08
2024-01-24T12:34:09.246Z,58.90
2024-01-24T12:35:15.321Z,57.34
2024-01-24T12:36:16.899Z,58.08
2024-01-24T12:37:22.572Z,57.87
2024-01-24T12:38:25.035Z,58.26
2024-01-24T12:39:28.738Z,58.12
2024-01-24T12:40:32.311Z,57.96
2024-01-24T12:41:33.896Z,58.76
2024-01-24T12:42:35.655Z,57.93
2024-01-24T12:43:37.173Z,58.44
2024-01-24T12:44:39.444Z,57.69
2024-01-24T12:45:41.298Z,57.40
2024-01-24T12:46:43.092Z,58.32
2024-01-24T12:47:44.863Z,58.46
2024-01-24T12:48:48.743Z,58.07
2024-01-24T12:49:50.673Z,57.11
2024-01-24T12:50:53.270Z,57.92
2024-01-24T12:51:55.795Z,57.53
2024-01-24T12:52:57.320Z,57.40
2024-01-24T12:53:58.844Z,57.04
2024-01-24T12:55:00.506Z,57.50
2024-01-24T12:56:02.633Z,57.42
2024-01-24T12:57:04.468Z,57.83
2024-01-24T12:58:06.462Z,57.46
2024-01-24T12:59:08.263Z,57.76
2024-01-24T13:00:13.324Z,58.15
2024-01-24T13:01:15.013Z,58.33
2024-01-24T13:02:18.096Z,57.79
2024-01-24T13:03:21.482Z,57.56
2024-01-24T13:04:24.935Z,58.35
2024-01-24T13:05:32.315Z,58.66
2024-01-24T13:06:41.572Z,58.24
2024-01-24T13:07:43.515Z,58.58
2024-01-24T13:08:45.789Z,59.11
2024-01-24T13:09:54.684Z,58.39
2024-01-24T13:10:58.414Z,58.95
2024-01-24T13:12:00.052Z,58.11
2024-01-24T13:13:01.653Z,58.49
2024-01-24T13:14:03.283Z,58.49
2024-01-24T13:15:08.097Z,58.13
2024-01-24T13:16:10.046Z,57.88
2024-01-24T13:17:11.520Z,58.86
2024-01-24T13:18:13.273Z,58.08
2024-01-24T13:19:14.953Z,57.86
2024-01-24T13:20:16.680Z,58.57
2024-01-24T13:21:18.699Z,59.28
2024-01-24T13:22:22.104Z,58.02
2024-01-24T13:23:23.604Z,58.63
2024-01-24T13:24:25.066Z,59.18
2024-01-24T13:25:27.707Z,59.85
2024-01-24T13:26:29.571Z,58.89
2024-01-24T13:27:31.235Z,58.52
2024-01-24T13:28:32.843Z,59.67
2024-01-24T13:29:34.482Z,59.39
2024-01-24T13:30:36.129Z,58.38
2024-01-24T13:31:37.759Z,58.11
2024-01-24T13:32:39.543Z,58.30
2024-01-24T13:33:42.262Z,58.29
2024-01-24T13:34:44.110Z,58.47
2024-01-24T13:35:45.815Z,58.40
2024-01-24T13:36:47.920Z,58.98
2024-01-24T13:37:49.810Z,58.49